createdAt,value
2019-04-05T00:00:55.728Z,73.00
2019-04-05T00:05:01.467Z,74.20
2019-04-05T00:09:08.447Z,74.80
2019-04-05T00:13:14.111Z,73.30
2019-04-05T00:17:19.810Z,72.30
2019-04-05T00:21:25.540Z,73.80
2019-04-05T00:25:31.265Z,73.00
2019-04-05T00:29:36.976Z,73.30
2019-04-05T00:33:42.690Z,76.60
2019-04-05T00:37:48.364Z,73.10
2019-04-05T00:41:54.115Z,73.20
2019-04-05T00:45:59.796Z,78.70
2019-04-05T00:50:12.307Z,76.40
2019-04-05T00:54:17.965Z,74.80
2019-04-05T00:58:23.719Z,73.90
2019-04-05T01:02:29.651Z,72.60
2019-04-05T01:06:35.858Z,77.90
2019-04-05T01:10:43.015Z,77.20
2019-04-05T01:14:49.127Z,77.10
2019-04-05T01:18:54.878Z,74.50
2019-04-05T01:23:02.404Z,74.40
2019-04-05T01:27:08.811Z,72.50
2019-04-05T01:31:14.544Z,72.50
2019-04-05T01:35:20.312Z,72.70
2019-04-05T01:39:26.077Z,78.50
2019-04-05T01:43:31.891Z,73.10
2019-04-05T01:47:37.891Z,70.60
2019-04-05T01:51:44.353Z,76.00
2019-04-05T01:55:50.021Z,76.70
2019-04-05T01:59:55.724Z,71.30
2019-04-05T02:04:01.618Z,70.50
2019-04-05T02:08:07.512Z,70.10
2019-04-05T02:12:13.358Z,73.00
2019-04-05T02:16:19.172Z,74.10
2019-04-05T02:20:25.373Z,71.00
2019-04-05T02:24:31.135Z,74.50
2019-04-05T02:28:37.290Z,74.30
2019-04-05T02:32:43.213Z,71.10
2019-04-05T02:36:48.970Z,77.80
2019-04-05T02:40:58.483Z,72.30
2019-04-05T02:45:06.820Z,72.40
2019-04-05T02:49:14.420Z,76.80
2019-04-05T02:53:21.712Z,77.00
2019-04-05T02:57:28.999Z,76.30
2019-04-05T03:01:35.797Z,77.00
2019-04-05T03:05:42.019Z,71.70
2019-04-05T03:09:49.459Z,72.40
2019-04-05T03:13:59.305Z,73.60
2019-04-05T03:18:05.107Z,76.10
2019-04-05T03:22:14.050Z,72.80
2019-04-05T03:26:24.169Z,75.10
2019-04-05T03:30:30.354Z,76.90
2019-04-05T03:34:37.360Z,74.80
2019-04-05T03:38:43.263Z,76.20
2019-04-05T03:42:49.275Z,73.60
2019-04-05T03:46:57.926Z,74.20
2019-04-05T03:51:03.781Z,75.10
2019-04-05T03:55:09.900Z,74.10
2019-04-05T03:59:15.569Z,78.50
2019-04-05T04:03:21.495Z,76.30
2019-04-05T04:07:27.329Z,77.00
2019-04-05T04:11:33.479Z,73.80
2019-04-05T04:15:39.549Z,79.20
2019-04-05T04:19:46.223Z,76.40
2019-04-05T04:23:52.415Z,72.70
2019-04-05T04:27:58.872Z,76.40
2019-04-05T04:32:05.213Z,72.00
2019-04-05T04:36:13.241Z,72.60
2019-04-05T04:40:21.213Z,73.90
2019-04-05T04:44:27.412Z,74.40
2019-04-05T04:48:33.739Z,71.00
2019-04-05T04:52:39.644Z,70.30
2019-04-05T04:56:45.735Z,71.00
2019-04-05T05:00:51.826Z,70.50
2019-04-05T05:04:57.806Z,71.90
2019-04-05T05:09:06.432Z,75.10
2019-04-05T05:13:12.268Z,73.70
2019-04-05T05:17:18.425Z,76.90
2019-04-05T05:21:24.343Z,72.00
2019-04-05T05:25:30.440Z,70.40
2019-04-05T05:29:36.609Z,73.40
2019-04-05T05:33:42.860Z,70.40
2019-04-05T05:37:49.383Z,70.90
2019-04-05T05:41:55.190Z,71.90
2019-04-05T05:46:01.250Z,71.40
2019-04-05T05:50:09.979Z,69.20
2019-04-05T05:54:15.682Z,70.10
2019-04-05T05:58:21.376Z,73.90
2019-04-05T06:02:27.142Z,75.30
2019-04-05T06:06:32.842Z,68.90
2019-04-05T06:10:38.545Z,69.60
2019-04-05T06:14:44.296Z,70.70
2019-04-05T06:18:49.979Z,72.20
2019-04-05T06:22:55.668Z,70.70
2019-04-05T06:27:02.404Z,69.60
2019-04-05T06:31:08.114Z,68.30
2019-04-05T06:35:13.872Z,68.50
2019-04-05T06:39:20.829Z,71.60
2019-04-05T06:43:26.674Z,70.90
2019-04-05T06:47:32.375Z,68.90
2019-04-05T06:51:38.072Z,73.20
2019-04-05T06:55:43.759Z,73.70
2019-04-05T06:59:49.435Z,69.30
2019-04-05T07:03:55.414Z,69.50
2019-04-05T07:08:01.174Z,68.30
2019-04-05T07:12:06.978Z,71.90
2019-04-05T07:16:12.710Z,67.90
2019-04-05T07:20:18.547Z,72.00
2019-04-05T07:24:24.234Z,68.50
2019-04-05T07:28:29.990Z,70.70
2019-04-05T07:32:35.829Z,69.00
2019-04-05T07:36:41.519Z,67.90
2019-04-05T07:40:47.283Z,70.20
2019-04-05T07:44:52.984Z,71.90
2019-04-05T07:48:58.720Z,67.60
2019-04-05T07:53:05.396Z,68.90
2019-04-05T07:57:11.081Z,69.20
2019-04-05T08:01:16.881Z,68.20
2019-04-05T08:05:22.653Z,64.00
2019-04-05T08:09:28.912Z,67.00
2019-04-05T08:13:38.658Z,66.00
2019-04-05T08:17:44.330Z,67.40
2019-04-05T08:21:50.009Z,71.10
2019-04-05T08:25:55.767Z,70.00
2019-04-05T08:30:01.507Z,67.40
2019-04-05T08:34:07.403Z,70.40
2019-04-05T08:38:13.056Z,68.80
2019-04-05T08:42:18.768Z,66.50
2019-04-05T08:46:24.580Z,66.80
2019-04-05T08:50:30.363Z,70.00
2019-04-05T08:54:36.868Z,68.00
2019-04-05T08:58:42.857Z,68.20
2019-04-05T09:02:48.822Z,66.50
2019-04-05T09:06:55.485Z,66.90
2019-04-05T09:11:01.182Z,62.70
2019-04-05T09:15:08.529Z,63.90
2019-04-05T09:19:23.364Z,66.10
2019-04-05T09:23:21.904Z,65.60
2019-04-05T09:27:27.603Z,66.60
2019-04-05T09:31:33.486Z,66.00
2019-04-05T09:35:39.191Z,61.10
2019-04-05T09:39:44.882Z,63.30
2019-04-05T09:43:50.584Z,62.30
2019-04-05T09:47:56.294Z,58.60
2019-04-05T09:52:01.998Z,56.50
2019-04-05T09:56:07.717Z,52.40
2019-04-05T10:05:25.830Z,48.80
2019-04-05T10:09:31.600Z,41.70
2019-04-05T10:13:37.370Z,42.80
2019-04-05T10:17:43.069Z,40.70
2019-04-05T10:21:48.757Z,38.70
2019-04-05T10:25:54.455Z,41.10
2019-04-05T10:30:00.151Z,43.40
2019-04-05T10:34:06.020Z,44.50
2019-04-05T10:38:11.734Z,44.20
2019-04-05T10:42:34.005Z,46.90
2019-04-05T10:46:39.698Z,45.40
2019-04-05T10:50:45.519Z,47.10
2019-04-05T10:54:51.248Z,47.10
2019-04-05T10:58:57.010Z,45.80
2019-04-05T11:03:02.836Z,48.30
2019-04-05T11:07:08.572Z,48.70
2019-04-05T11:11:14.279Z,49.60
2019-04-05T11:15:20.596Z,49.10
2019-04-05T11:19:26.370Z,50.80
2019-04-05T11:23:32.079Z,52.20
2019-04-05T11:27:37.939Z,53.50
2019-04-05T11:31:55.979Z,53.60
2019-04-05T11:35:51.511Z,51.30
2019-04-05T11:39:58.001Z,52.20
2019-04-05T11:44:04.409Z,54.30
2019-04-05T11:48:10.317Z,56.00
2019-04-05T11:52:16.186Z,51.50
2019-04-05T11:56:21.884Z,53.60
2019-04-05T12:00:36.350Z,54.60
2019-04-05T12:04:42.902Z,55.50
2019-04-05T12:08:48.787Z,54.60
2019-04-05T12:12:54.563Z,54.50
2019-04-05T12:17:00.263Z,52.50
2019-04-05T12:21:06.050Z,54.10
2019-04-05T12:25:12.061Z,55.10
2019-04-05T12:29:17.823Z,54.70
2019-04-05T12:33:23.687Z,55.90
2019-04-05T12:37:29.444Z,55.10
2019-04-05T12:41:35.120Z,55.40
2019-04-05T12:45:44.349Z,54.60
2019-04-05T12:49:48.255Z,54.80
2019-04-05T12:53:56.489Z,56.30
2019-04-05T12:58:01.344Z,56.60
2019-04-05T13:02:07.050Z,55.60
2019-04-05T13:06:12.769Z,56.00
2019-04-05T13:10:18.470Z,56.80
2019-04-05T13:14:26.094Z,55.80
2019-04-05T13:18:31.880Z,56.20
2019-04-05T13:34:06.312Z,56.80
2019-04-05T13:38:12.152Z,56.20
2019-04-05T13:42:17.843Z,56.50
2019-04-05T13:46:26.054Z,56.10
2019-04-05T13:50:31.048Z,58.20
2019-04-05T13:54:38.291Z,57.50
2019-04-05T13:58:46.362Z,56.10
2019-04-05T14:02:51.654Z,57.60
2019-04-05T14:06:57.357Z,58.40
2019-04-05T14:11:03.594Z,57.20
2019-04-05T14:15:11.242Z,55.80
2019-04-05T14:19:19.382Z,57.10
2019-04-05T14:23:26.200Z,59.50
2019-04-05T14:27:34.930Z,59.50
2019-04-05T14:31:39.304Z,59.10
2019-04-05T14:35:45.062Z,60.20
2019-04-05T14:39:50.769Z,60.40
2019-04-05T14:43:56.442Z,61.50
2019-04-05T14:48:02.323Z,59.30
2019-04-05T14:52:08.028Z,58.30
2019-04-05T14:56:13.717Z,57.70
2019-04-05T15:00:19.843Z,58.00
2019-04-05T15:04:25.525Z,57.60
2019-04-05T15:08:31.243Z,57.10
2019-04-05T15:12:36.970Z,57.00
2019-04-05T15:16:42.661Z,55.80
2019-04-05T15:20:48.336Z,56.30
2019-04-05T15:24:54.105Z,56.50
2019-04-05T15:28:59.821Z,56.90
2019-04-05T15:33:05.808Z,55.50
2019-04-05T15:37:11.809Z,56.20
2019-04-05T15:41:17.558Z,58.50
2019-04-05T15:45:23.422Z,57.50
2019-04-05T15:49:30.186Z,58.00
2019-04-05T15:53:35.887Z,57.60
2019-04-05T15:57:41.585Z,59.00
2019-04-05T16:01:47.263Z,58.80
2019-04-05T16:05:53.108Z,59.20
2019-04-05T16:09:58.889Z,57.40
2019-04-05T16:14:04.933Z,58.40
2019-04-05T16:18:10.707Z,57.90
2019-04-05T16:22:16.443Z,56.50
2019-04-05T16:26:22.144Z,56.60
2019-04-05T16:30:27.920Z,57.60
2019-04-05T16:34:33.602Z,58.40
2019-04-05T16:38:39.371Z,57.40
2019-04-05T16:42:45.128Z,57.00
2019-04-05T16:46:50.826Z,57.70
2019-04-05T16:50:56.527Z,58.50
2019-04-05T16:55:03.259Z,58.80
2019-04-05T16:59:09.020Z,61.20
2019-04-05T17:03:14.695Z,61.10
2019-04-05T17:07:21.769Z,61.30
2019-04-05T17:11:27.628Z,61.10
2019-04-05T17:15:33.436Z,61.30
2019-04-05T17:19:40.756Z,61.40
2019-04-05T17:23:46.471Z,60.90
2019-04-05T17:27:52.183Z,60.20
2019-04-05T17:37:13.882Z,59.00
2019-04-05T17:41:19.586Z,60.00
2019-04-05T17:45:25.334Z,60.00
2019-04-05T17:49:31.006Z,60.70
2019-04-05T17:53:36.992Z,64.50
2019-04-05T17:57:42.994Z,63.60
2019-04-05T18:01:48.753Z,64.40
2019-04-05T18:05:54.472Z,65.70
2019-04-05T18:10:00.262Z,65.00
2019-04-05T18:14:06.122Z,65.10
2019-04-05T18:18:12.784Z,64.60
2019-04-05T18:22:18.527Z,64.20
2019-04-05T18:26:24.237Z,65.30
2019-04-05T18:30:30.037Z,65.90
2019-04-05T18:34:35.798Z,65.20
2019-04-05T18:38:41.517Z,66.20
2019-04-05T18:42:47.291Z,66.70
2019-04-05T18:46:52.974Z,66.60
2019-04-05T18:50:58.875Z,67.90
2019-04-05T18:55:07.207Z,67.30
2019-04-05T18:59:12.922Z,66.40
2019-04-05T19:03:18.835Z,66.90
2019-04-05T19:07:24.554Z,66.00
2019-04-05T19:11:30.374Z,65.00
2019-04-05T19:15:36.085Z,64.40
2019-04-05T19:19:41.874Z,63.90
2019-04-05T19:23:51.024Z,65.40
2019-04-05T19:27:55.307Z,64.00
2019-04-05T19:48:31.454Z,65.70
2019-04-05T19:52:37.876Z,64.70
2019-04-05T19:56:43.581Z,64.10
2019-04-05T20:00:49.412Z,65.80
2019-04-05T20:04:55.198Z,64.20
2019-04-05T20:09:00.876Z,66.00
2019-04-05T20:13:08.497Z,62.40
2019-04-05T20:17:14.268Z,67.70
2019-04-05T20:21:19.997Z,63.90
2019-04-05T20:25:25.715Z,64.70
2019-04-05T20:29:31.397Z,62.10
2019-04-05T20:33:37.187Z,63.40
2019-04-05T20:37:42.922Z,64.20
2019-04-05T20:41:48.737Z,62.80
2019-04-05T20:45:57.090Z,61.80
2019-04-05T20:50:02.956Z,64.60
2019-04-05T20:54:08.658Z,63.90
2019-04-05T20:58:14.394Z,62.80
2019-04-05T21:02:20.177Z,63.00
2019-04-05T21:06:25.878Z,64.50
2019-04-05T21:10:31.589Z,63.90
2019-04-05T21:14:37.287Z,63.20
2019-04-05T21:18:42.991Z,61.60
2019-04-05T21:22:48.755Z,64.60
2019-04-05T21:26:54.446Z,63.50
2019-04-05T21:31:00.148Z,64.70
2019-04-05T21:35:07.668Z,64.30
2019-04-05T21:39:13.362Z,65.40
2019-04-05T21:43:19.059Z,66.20
2019-04-05T21:47:24.842Z,63.70
2019-04-05T21:51:30.584Z,64.80
2019-04-05T21:55:36.404Z,64.60
2019-04-05T21:59:42.079Z,66.30
2019-04-05T22:03:47.764Z,72.50
2019-04-05T22:07:53.480Z,67.60
2019-04-05T22:11:59.345Z,68.80
2019-04-05T22:16:05.068Z,68.10
2019-04-05T22:20:11.524Z,72.30
2019-04-05T22:24:17.194Z,71.80
2019-04-05T22:28:22.912Z,69.60
2019-04-05T22:32:28.611Z,74.90
2019-04-05T22:36:34.308Z,75.90
2019-04-05T22:40:40.005Z,74.80
2019-04-05T22:44:45.692Z,72.40
2019-04-05T22:48:51.383Z,72.40
2019-04-05T22:52:57.076Z,77.00
2019-04-05T23:01:04.483Z,77.20
2019-04-05T23:05:10.428Z,74.00
2019-04-05T23:09:16.127Z,76.10
2019-04-05T23:13:21.849Z,74.60
2019-04-05T23:17:27.610Z,74.50
2019-04-05T23:21:33.291Z,77.70
2019-04-05T23:25:39.020Z,73.30
2019-04-05T23:29:44.697Z,75.70
2019-04-05T23:33:50.396Z,74.10
2019-04-05T23:37:56.091Z,79.00
2019-04-05T23:42:01.962Z,75.90
2019-04-05T23:46:07.673Z,79.70
2019-04-05T23:50:13.678Z,79.10
2019-04-05T23:54:19.360Z,75.00
2019-04-05T23:58:25.074Z,77.20
